TAF LFRI
LFRI 090500Z 0906/1006 20006KT CAVOK BECMG 0910/0912 -RA TEMPO 0912/0922 4500 BKN012 PROB40 TEMPO 0917/0921 2000 RADZ BKN003 BECMG 0919/0921 28015G25KT BECMG 0922/0924 SCT020 TEMPO 0922/1002 28020G35KT TEMPO 0923/1006 4000 SHRA BKN018TCU=
METAR LFRI
LFRI 091030Z AUTO 15005KT 9999 FEW026 BKN032 OVC049 06/04 Q1010 TEMPO 4500 BKN012=
LFRI 091000Z AUTO 16006KT 9999 BKN036 BKN047 OVC080 05/04 Q1010 NOSIG=
LFRI 090930Z AUTO 16006KT 9999 FEW030 SCT035 BKN046 04/03 Q1011 NOSIG=
LFRI 090900Z AUTO 15006KT 9999 SCT040 BKN047 OVC064 04/02 Q1010 NOSIG=
LFRI 090830Z AUTO 15005KT 9999 FEW042 SCT058 OVC074 04/02 Q1011 NOSIG=
WC LFRI
WS LFRI
WV LFRI